Time;durP1;ratioP1;P1;durP2;ratioP2;P2;SDS_P1;SDS_P2;PMS_P1;PMS_P2;Temp;Humidity;BMP_temperature;BMP_pressure;BME280_temperature;BME280_humidity;BME280_pressure;Samples;Min_cycle;Max_cycle;Signal;HPM_P1;HPM_P2
2023/10/06 00:00:58;;;;;;;12.73;8.07;;;;;;;16.60;87.19;95289.38;5168303;27;20309;-44
2023/10/06 00:03:25;;;;;;;13.53;7.50;;;;;;;16.57;87.30;95285.31;5149580;27;20302;-44
2023/10/06 00:05:53;;;;;;;11.37;7.57;;;;;;;16.53;87.32;95286.59;5147485;27;20740;-45
2023/10/06 00:08:22;;;;;;;9.70;7.30;;;;;;;16.50;87.59;95279.22;5149429;27;20182;-44
2023/10/06 00:10:51;;;;;;;13.20;7.47;;;;;;;16.48;87.76;95273.38;5153544;27;20224;-44
2023/10/06 00:13:23;;;;;;;11.23;7.23;;;;;;;16.43;87.83;95266.09;5147660;27;20545;-46
2023/10/06 00:15:51;;;;;;;10.10;6.83;;;;;;;16.42;87.81;95268.88;5147401;27;20176;-45
2023/10/06 00:18:19;;;;;;;9.47;6.30;;;;;;;16.41;87.68;95275.81;5147036;27;20188;-44
2023/10/06 00:20:48;;;;;;;9.57;6.70;;;;;;;16.42;87.67;95276.59;5158866;27;20183;-45
2023/10/06 00:23:21;;;;;;;9.30;7.00;;;;;;;16.42;87.70;95267.09;5168291;27;20195;-45
2023/10/06 00:25:51;;;;;;;10.50;7.17;;;;;;;16.41;87.80;95262.09;5167746;27;20191;-44
2023/10/06 00:28:19;;;;;;;11.60;7.03;;;;;;;16.41;87.62;95259.50;5167929;27;20201;-44
2023/10/06 00:30:50;;;;;;;11.30;6.97;;;;;;;16.40;87.83;95263.84;5167661;27;20210;-44
2023/10/06 00:33:17;;;;;;;10.90;7.10;;;;;;;16.35;87.99;95258.34;5167844;27;20187;-44
2023/10/06 00:35:48;;;;;;;11.47;7.10;;;;;;;16.40;87.99;95265.63;5166460;27;20191;-45
2023/10/06 00:38:16;;;;;;;8.97;7.37;;;;;;;16.21;88.15;95246.06;5167733;27;20191;-44
2023/10/06 00:40:51;;;;;;;9.23;7.17;;;;;;;16.32;88.37;95274.19;5165936;27;20292;-45
2023/10/06 00:43:34;;;;;;;10.67;6.93;;;;;;;16.29;88.54;95271.91;5167654;27;20562;-45
2023/10/06 00:46:01;;;;;;;12.80;7.07;;;;;;;16.27;88.55;95273.81;5167774;27;20263;-44
2023/10/06 00:48:32;;;;;;;10.57;7.57;;;;;;;16.23;88.81;95273.31;5167545;27;20186;-44
2023/10/06 00:51:01;;;;;;;9.13;7.27;;;;;;;16.23;88.77;95275.91;5158078;27;20249;-44
2023/10/06 00:53:32;;;;;;;9.97;7.37;;;;;;;16.23;88.79;95283.66;5153540;27;20195;-44
2023/10/06 00:56:02;;;;;;;13.77;7.17;;;;;;;16.21;88.78;95270.09;5153067;27;20211;-45
2023/10/06 00:58:34;;;;;;;10.07;6.97;;;;;;;16.21;88.69;95274.47;5153207;27;20188;-45
2023/10/06 01:01:05;;;;;;;11.90;6.57;;;;;;;16.24;88.53;95274.97;5153061;27;20176;-45
2023/10/06 01:03:38;;;;;;;9.60;6.67;;;;;;;16.24;88.82;95281.91;5153306;27;20196;-45
2023/10/06 01:06:09;;;;;;;12.27;7.13;;;;;;;16.27;89.01;95278.97;5111841;28;20633;-45
2023/10/06 01:08:36;;;;;;;9.47;7.00;;;;;;;16.26;88.68;95264.47;5112168;28;20206;-45
2023/10/06 01:11:11;;;;;;;12.83;7.33;;;;;;;16.15;88.68;95260.44;5112222;28;20192;-46
2023/10/06 01:13:54;;;;;;;11.60;7.20;;;;;;;16.21;88.67;95266.72;5112090;28;20649;-45
2023/10/06 01:16:30;;;;;;;11.57;7.70;;;;;;;16.17;88.56;95262.84;5111922;28;20189;-46
2023/10/06 01:19:06;;;;;;;11.07;7.77;;;;;;;16.15;88.77;95259.59;5125700;27;20204;-45
2023/10/06 01:21:39;;;;;;;8.30;7.03;;;;;;;16.07;88.89;95247.50;5132056;27;20187;-45
2023/10/06 01:24:13;;;;;;;10.67;7.10;;;;;;;16.11;88.96;95263.47;5132249;27;20192;-45
2023/10/06 01:26:42;;;;;;;11.60;7.60;;;;;;;16.12;88.99;95255.56;5130706;27;20248;-46
2023/10/06 01:29:11;;;;;;;16.23;7.83;;;;;;;16.12;89.17;95262.50;5131984;27;20215;-45
2023/10/06 01:31:39;;;;;;;9.90;6.83;;;;;;;16.13;89.35;95262.34;5131675;27;20241;-45
2023/10/06 01:34:14;;;;;;;12.17;7.60;;;;;;;16.03;89.39;95252.16;5149777;27;20580;-45
2023/10/06 01:36:45;;;;;;;10.77;6.97;;;;;;;16.13;89.01;95259.75;5153985;27;20198;-46
2023/10/06 01:39:23;;;;;;;10.53;6.17;;;;;;;16.13;88.90;95272.66;5112416;27;20688;-46
2023/10/06 01:41:57;;;;;;;10.77;7.17;;;;;;;16.19;88.62;95279.78;5147968;27;20187;-47
2023/10/06 01:44:25;;;;;;;8.03;7.13;;;;;;;16.11;88.67;95279.78;5153671;27;20263;-45
2023/10/06 01:46:54;;;;;;;10.47;6.83;;;;;;;16.10;88.70;95290.22;5153172;27;20194;-45
2023/10/06 01:49:21;;;;;;;10.30;6.53;;;;;;;16.10;88.78;95280.72;5113459;28;20229;-46
2023/10/06 01:51:51;;;;;;;10.60;7.43;;;;;;;16.14;88.56;95283.78;5113349;28;20280;-46
2023/10/06 01:54:27;;;;;;;8.80;7.00;;;;;;;16.16;88.63;95292.19;5113950;28;20196;-45
2023/10/06 01:56:55;;;;;;;10.40;7.27;;;;;;;16.17;88.55;95289.44;5119026;27;20219;-46
2023/10/06 01:59:22;;;;;;;14.17;7.23;;;;;;;16.17;88.70;95298.97;5132979;27;20227;-45
2023/10/06 02:01:49;;;;;;;9.67;6.43;;;;;;;16.20;88.51;95293.50;5131699;27;20227;-45
2023/10/06 02:04:18;;;;;;;10.10;7.17;;;;;;;16.22;88.36;95291.56;5132047;27;20192;-45
2023/10/06 02:06:52;;;;;;;12.33;7.00;;;;;;;16.17;88.23;95289.44;5132407;27;20200;-46
2023/10/06 02:09:25;;;;;;;11.17;6.93;;;;;;;16.23;88.08;95293.16;5133431;27;20211;-45
2023/10/06 02:11:55;;;;;;;12.30;7.07;;;;;;;16.15;88.02;95277.66;5131674;27;20303;-45
2023/10/06 02:14:23;;;;;;;11.50;7.47;;;;;;;16.22;87.79;95296.72;5133019;27;20654;-45
2023/10/06 02:16:55;;;;;;;11.23;6.73;;;;;;;16.20;87.53;95298.66;5144846;27;20187;-44
2023/10/06 02:19:22;;;;;;;14.20;6.73;;;;;;;16.18;87.62;95298.00;5152383;27;20223;-47
2023/10/06 02:21:50;;;;;;;9.27;6.60;;;;;;;15.68;87.52;95227.41;5151869;27;20656;-45
2023/10/06 02:24:17;;;;;;;12.80;7.37;;;;;;;16.15;87.48;95300.88;5135982;27;20181;-46
2023/10/06 02:26:50;;;;;;;9.40;6.20;;;;;;;16.11;87.51;95305.56;5147254;27;20911;-43
2023/10/06 02:29:19;;;;;;;10.10;7.10;;;;;;;16.13;87.59;95302.81;5151904;27;20195;-45
2023/10/06 02:31:46;;;;;;;18.70;7.90;;;;;;;16.14;87.59;95300.06;5152032;27;20180;-44
2023/10/06 02:34:35;;;;;;;13.83;6.97;;;;;;;16.14;87.85;95304.44;5154674;27;20176;-46
2023/10/06 02:37:07;;;;;;;13.27;7.30;;;;;;;15.92;87.89;95280.81;5154591;27;20322;-46
2023/10/06 02:39:43;;;;;;;8.87;7.17;;;;;;;16.14;87.98;95307.81;5155097;27;20238;-46
2023/10/06 02:42:13;;;;;;;9.00;6.30;;;;;;;16.15;87.97;95314.63;5136546;27;20187;-45
2023/10/06 02:44:41;;;;;;;9.43;6.83;;;;;;;16.16;88.07;95313.66;5134017;27;20188;-44
2023/10/06 02:47:09;;;;;;;12.73;6.77;;;;;;;16.07;87.78;95300.88;5131270;27;20267;-46
2023/10/06 02:49:40;;;;;;;13.67;7.40;;;;;;;16.12;87.91;95291.69;5130975;27;20220;-45
2023/10/06 02:52:15;;;;;;;9.90;7.07;;;;;;;16.29;87.95;95316.59;5131798;27;20612;-45
2023/10/06 02:54:49;;;;;;;11.53;8.03;;;;;;;16.34;88.07;95317.88;5131452;27;20191;-45
2023/10/06 02:57:20;;;;;;;10.40;7.20;;;;;;;16.36;87.93;95314.16;5131184;27;20199;-45
2023/10/06 02:59:48;;;;;;;12.90;6.97;;;;;;;16.33;87.98;95311.13;5131048;27;20211;-43
2023/10/06 03:02:16;;;;;;;14.43;7.50;;;;;;;16.34;87.96;95305.78;5131160;27;20668;-45
2023/10/06 03:04:43;;;;;;;10.53;7.10;;;;;;;16.32;87.90;95305.16;5131179;27;20231;-44
2023/10/06 03:07:14;;;;;;;10.30;6.80;;;;;;;16.34;87.75;95307.56;5130373;27;20200;-45
2023/10/06 03:09:47;;;;;;;13.33;7.37;;;;;;;16.35;87.77;95307.41;5130425;27;20295;-46
2023/10/06 03:12:15;;;;;;;14.63;7.17;;;;;;;16.40;88.03;95307.72;5130562;27;20296;-45
2023/10/06 03:14:47;;;;;;;11.80;7.20;;;;;;;16.38;88.00;95307.09;5130962;27;20219;-45
2023/10/06 03:17:17;;;;;;;9.60;7.17;;;;;;;16.37;87.99;95307.25;5131023;27;20542;-46
2023/10/06 03:19:56;;;;;;;11.07;8.23;;;;;;;16.38;87.94;95314.03;5122230;27;20220;-45
2023/10/06 03:22:25;;;;;;;12.33;7.50;;;;;;;16.35;87.85;95320.31;5130055;27;20203;-44
2023/10/06 03:24:58;;;;;;;11.13;7.23;;;;;;;16.34;87.95;95310.94;5130400;27;20187;-50
2023/10/06 03:27:26;;;;;;;10.83;6.97;;;;;;;16.37;87.69;95315.81;5130857;27;20196;-45
2023/10/06 03:29:55;;;;;;;10.80;6.37;;;;;;;16.38;87.47;95314.84;5131523;27;20195;-44
2023/10/06 03:32:32;;;;;;;8.93;6.40;;;;;;;16.41;87.18;95311.13;5131290;27;20276;-45
2023/10/06 03:35:09;;;;;;;10.53;5.93;;;;;;;16.42;86.74;95305.00;5130488;27;20188;-45
2023/10/06 03:37:44;;;;;;;8.10;5.70;;;;;;;16.43;86.52;95309.19;5132996;27;20279;-51
2023/10/06 03:40:22;;;;;;;10.90;5.47;;;;;;;16.43;86.27;95311.78;5131461;27;20255;-46
2023/10/06 03:42:50;;;;;;;10.13;6.53;;;;;;;16.44;85.74;95308.22;5111190;28;20224;-45
2023/10/06 03:45:26;;;;;;;11.63;5.80;;;;;;;16.45;85.51;95317.56;5109216;28;20223;-45
2023/10/06 03:48:08;;;;;;;7.43;5.37;;;;;;;16.46;85.25;95316.63;5109803;28;20222;-47
2023/10/06 03:50:38;;;;;;;9.90;5.47;;;;;;;16.46;84.98;95314.84;5110257;28;20235;-44
2023/10/06 03:53:07;;;;;;;10.13;5.97;;;;;;;16.47;84.75;95315.66;5110808;28;20635;-45
2023/10/06 03:55:36;;;;;;;6.70;4.93;;;;;;;16.48;84.59;95309.53;5110474;28;20207;-45
2023/10/06 03:58:03;;;;;;;11.57;5.83;;;;;;;16.42;84.40;95310.16;5110769;28;20181;-44
2023/10/06 04:00:38;;;;;;;8.30;5.47;;;;;;;16.50;84.10;95317.94;5110664;28;20244;-44
2023/10/06 04:03:06;;;;;;;15.00;4.97;;;;;;;16.52;83.90;95316.78;5109574;28;20307;-44
2023/10/06 04:05:37;;;;;;;6.80;4.90;;;;;;;16.53;83.73;95320.19;5109609;28;20189;-45
2023/10/06 04:08:08;;;;;;;10.03;5.40;;;;;;;16.55;83.51;95318.25;5127499;28;20192;-46
2023/10/06 04:10:36;;;;;;;8.20;5.07;;;;;;;16.54;83.33;95308.91;5127978;27;20657;-45
2023/10/06 04:13:05;;;;;;;7.50;4.90;;;;;;;16.54;83.19;95314.88;5117669;28;20189;-44
2023/10/06 04:15:34;;;;;;;6.37;5.20;;;;;;;16.53;83.12;95315.81;5123255;27;20241;-48
2023/10/06 04:18:05;;;;;;;8.43;4.83;;;;;;;16.37;82.97;95292.56;5110608;28;20271;-53
2023/10/06 04:20:33;;;;;;;9.67;5.20;;;;;;;16.45;82.90;95305.50;5110062;28;20232;-46
2023/10/06 04:23:02;;;;;;;8.53;5.77;;;;;;;16.52;82.68;95321.16;5109563;28;20201;-44
2023/10/06 04:25:29;;;;;;;12.50;6.37;;;;;;;16.53;82.77;95320.19;5117769;27;20196;-46
2023/10/06 04:27:56;;;;;;;9.87;6.03;;;;;;;16.53;82.83;95330.50;5116873;27;20676;-44
2023/10/06 04:30:25;;;;;;;13.40;5.53;;;;;;;16.55;82.62;95333.75;5113293;28;20214;-43
2023/10/06 04:32:53;;;;;;;8.87;5.73;;;;;;;16.53;82.60;95333.88;5113030;28;20582;-45
2023/10/06 04:35:24;;;;;;;11.73;5.83;;;;;;;16.56;82.70;95340.53;5113730;28;20196;-44
2023/10/06 04:37:55;;;;;;;8.37;5.27;;;;;;;16.58;82.49;95340.34;5113622;28;20203;-45
2023/10/06 04:40:22;;;;;;;6.80;5.30;;;;;;;16.61;82.57;95345.22;5113998;28;20581;-44
2023/10/06 04:42:49;;;;;;;9.90;5.60;;;;;;;16.61;82.59;95342.63;5114585;28;20217;-44
2023/10/06 04:45:16;;;;;;;12.90;5.63;;;;;;;16.61;82.55;95338.28;5113721;28;20181;-46
2023/10/06 04:47:43;;;;;;;11.27;5.83;;;;;;;16.61;82.32;95330.53;5113779;28;20200;-44
2023/10/06 04:50:11;;;;;;;12.43;5.37;;;;;;;16.70;82.33;95346.84;5113633;28;20236;-44
2023/10/06 04:52:39;;;;;;;10.10;5.97;;;;;;;16.73;82.25;95347.38;5113166;27;20277;-43
2023/10/06 04:55:11;;;;;;;10.93;6.40;;;;;;;16.78;82.15;95347.69;5112370;28;20192;-45
2023/10/06 04:57:38;;;;;;;16.17;5.80;;;;;;;16.82;81.83;95349.97;5126802;27;20196;-45
2023/10/06 05:00:06;;;;;;;10.67;5.40;;;;;;;16.85;81.82;95355.63;5133215;27;20344;-45
2023/10/06 05:02:34;;;;;;;9.07;5.63;;;;;;;16.91;81.58;95357.56;5133228;27;20205;-45
2023/10/06 05:05:01;;;;;;;10.83;5.77;;;;;;;16.96;81.23;95359.66;5111772;27;20229;-43
2023/10/06 05:07:31;;;;;;;7.57;5.77;;;;;;;17.05;81.09;95369.84;5109968;28;20617;-45
2023/10/06 05:09:57;;;;;;;7.47;5.50;;;;;;;17.08;80.78;95368.72;5109970;28;20193;-44
2023/10/06 05:12:24;;;;;;;7.50;5.53;;;;;;;17.14;80.67;95364.66;5110337;28;20197;-43
2023/10/06 05:14:51;;;;;;;11.20;6.13;;;;;;;17.25;80.29;95374.69;5111412;28;20193;-44
2023/10/06 05:17:18;;;;;;;9.03;6.10;;;;;;;17.26;80.07;95374.53;5111320;28;20265;-45
2023/10/06 05:19:45;;;;;;;13.37;6.03;;;;;;;17.39;79.55;95379.22;5109573;28;20704;-44
2023/10/06 05:22:12;;;;;;;9.43;5.90;;;;;;;17.46;79.16;95385.34;5109457;28;20335;-45
2023/10/06 05:24:40;;;;;;;28.00;7.13;;;;;;;17.05;79.12;95310.41;5110001;28;20181;-44
2023/10/06 05:27:07;;;;;;;23.23;7.03;;;;;;;17.62;78.77;95383.75;5109079;28;20185;-44
2023/10/06 05:29:35;;;;;;;32.30;7.63;;;;;;;17.72;78.49;95386.94;5109772;28;20703;-44
2023/10/06 05:32:03;;;;;;;9.17;6.07;;;;;;;17.83;78.09;95394.38;5109470;28;20649;-45
2023/10/06 05:34:30;;;;;;;7.03;5.60;;;;;;;17.90;77.97;95395.34;5098607;28;20185;-43
2023/10/06 05:36:59;;;;;;;13.73;5.80;;;;;;;17.99;77.64;95389.16;5089063;28;20649;-44
2023/10/06 05:39:28;;;;;;;7.40;5.47;;;;;;;18.10;77.28;95395.78;5101926;27;20279;-44
2023/10/06 05:41:56;;;;;;;9.50;5.67;;;;;;;18.20;76.86;95398.97;5111234;27;20231;-46
2023/10/06 05:44:24;;;;;;;11.53;6.20;;;;;;;18.32;75.92;95394.25;5111559;28;20189;-44
2023/10/06 05:46:51;;;;;;;8.93;5.30;;;;;;;18.45;75.37;95407.47;5111767;28;20246;-44
2023/10/06 05:49:21;;;;;;;9.80;5.50;;;;;;;18.56;75.26;95408.84;5111575;28;20347;-44
2023/10/06 05:51:49;;;;;;;9.93;5.90;;;;;;;18.71;74.85;95403.81;5111517;28;20268;-46
2023/10/06 05:54:21;;;;;;;14.33;6.57;;;;;;;18.81;74.05;95399.22;5111656;27;20184;-45
2023/10/06 05:56:53;;;;;;;11.97;6.10;;;;;;;18.95;73.46;95416.59;5111294;27;20299;-43
2023/10/06 05:59:21;;;;;;;8.20;5.20;;;;;;;19.08;72.38;95405.66;5111748;27;20189;-46
2023/10/06 06:01:56;;;;;;;7.23;5.07;;;;;;;19.28;72.04;95419.81;5110999;28;20258;-44
2023/10/06 06:04:27;;;;;;;6.20;5.37;;;;;;;19.47;71.29;95422.88;5111329;28;20188;-46
2023/10/06 06:07:02;;;;;;;9.70;5.23;;;;;;;19.71;70.88;95422.72;5112524;28;20219;-46
2023/10/06 06:09:33;;;;;;;7.20;4.55;;;;;;;19.94;69.72;95430.44;5112652;28;20193;-46
2023/10/06 06:12:07;;;;;;;8.60;6.13;;;;;;;20.14;68.92;95433.34;5112272;28;20192;-46
2023/10/06 06:14:36;;;;;;;8.70;5.43;;;;;;;20.35;66.93;95427.44;5112448;28;20565;-45
2023/10/06 06:17:03;;;;;;;9.23;5.57;;;;;;;20.38;66.66;95418.47;5124310;27;20192;-46
2023/10/06 06:19:32;;;;;;;9.13;5.60;;;;;;;20.61;66.30;95414.00;5113604;27;20190;-45
2023/10/06 06:22:02;;;;;;;13.98;6.13;;;;;;;20.88;65.14;95429.91;5110273;28;20233;-45
2023/10/06 06:24:29;;;;;;;9.65;5.47;;;;;;;20.98;65.03;95427.81;5110074;28;20209;-44
2023/10/06 06:26:56;;;;;;;6.13;4.65;;;;;;;21.19;64.82;95442.63;5109884;28;20197;-44
2023/10/06 06:29:22;;;;;;;8.13;5.45;;;;;;;21.36;64.20;95432.81;5109902;28;20591;-45
2023/10/06 06:31:52;;;;;;;7.57;5.53;;;;;;;21.60;62.97;95445.47;5110088;27;20633;-46
2023/10/06 06:34:20;;;;;;;12.95;5.80;;;;;;;21.72;62.99;95443.97;5110500;27;20211;-44
2023/10/06 06:36:48;;;;;;;10.73;5.80;;;;;;;21.88;62.12;95444.66;5110017;28;20298;-46
2023/10/06 06:39:17;;;;;;;8.90;5.60;;;;;;;21.98;61.89;95440.75;5110098;28;20216;-45
2023/10/06 06:41:44;;;;;;;10.50;5.85;;;;;;;22.19;61.31;95446.91;5109726;28;20221;-44
2023/10/06 06:44:10;;;;;;;8.50;5.82;;;;;;;22.37;60.14;95443.81;5109082;28;20197;-46
2023/10/06 06:46:38;;;;;;;8.38;5.22;;;;;;;22.43;59.66;95458.69;5109596;28;20646;-44
2023/10/06 06:49:06;;;;;;;13.68;5.72;;;;;;;22.29;60.50;95452.59;5108871;27;20192;-45
2023/10/06 06:51:33;;;;;;;8.98;5.72;;;;;;;22.27;60.42;95452.78;5110447;27;20200;-47
2023/10/06 06:54:00;;;;;;;7.80;5.53;;;;;;;22.34;61.14;95458.03;5109385;28;20195;-44
2023/10/06 06:56:28;;;;;;;7.03;5.20;;;;;;;22.44;59.79;95453.28;5111726;27;20203;-44
2023/10/06 06:58:56;;;;;;;10.45;5.07;;;;;;;22.56;59.53;95460.56;5108269;28;20201;-46
2023/10/06 07:01:23;;;;;;;14.88;5.78;;;;;;;22.68;59.00;95462.44;5109486;28;20213;-45
2023/10/06 07:03:50;;;;;;;11.25;5.25;;;;;;;22.71;59.30;95462.03;5109794;28;20293;-44
2023/10/06 07:06:20;;;;;;;9.35;6.07;;;;;;;22.78;58.97;95454.22;5109130;28;20220;-44
2023/10/06 07:08:47;;;;;;;9.75;5.85;;;;;;;22.77;58.28;95463.06;5109564;28;20595;-45
2023/10/06 07:11:15;;;;;;;14.73;5.47;;;;;;;22.66;58.62;95453.97;5108964;27;20694;-45
2023/10/06 07:13:42;;;;;;;7.68;5.20;;;;;;;22.63;59.45;95459.59;5109518;28;20188;-44
2023/10/06 07:16:09;;;;;;;9.13;5.72;;;;;;;22.69;58.33;95451.00;5108998;28;20200;-44
2023/10/06 07:18:37;;;;;;;9.20;5.53;;;;;;;22.76;58.42;95459.66;5109360;28;20196;-45
2023/10/06 07:21:08;;;;;;;10.32;5.70;;;;;;;22.82;58.58;95455.47;5108670;28;20287;-44
2023/10/06 07:23:37;;;;;;;10.98;5.82;;;;;;;22.99;57.72;95455.94;5110568;27;20658;-46
2023/10/06 07:26:11;;;;;;;14.55;5.35;;;;;;;23.08;57.35;95453.97;5109165;27;20192;-45
2023/10/06 07:28:39;;;;;;;8.02;5.38;;;;;;;23.17;57.46;95456.19;5107913;28;20239;-45
2023/10/06 07:31:10;;;;;;;8.35;5.70;;;;;;;23.19;57.35;95458.63;5110635;27;20200;-45
2023/10/06 07:33:37;;;;;;;11.07;5.97;;;;;;;23.31;57.18;95453.63;5109401;28;20654;-45
2023/10/06 07:36:13;;;;;;;10.88;5.90;;;;;;;23.36;56.43;95459.03;5109147;28;20242;-45
2023/10/06 07:38:42;;;;;;;10.43;5.72;;;;;;;23.17;57.07;95429.28;5108976;28;20193;-45
2023/10/06 07:41:10;;;;;;;8.13;5.72;;;;;;;23.50;57.15;95445.03;5108451;28;20216;-45
2023/10/06 07:43:37;;;;;;;8.00;5.43;;;;;;;23.60;56.85;95439.41;5106774;28;20704;-45
2023/10/06 07:46:07;;;;;;;7.78;5.43;;;;;;;23.85;55.39;95460.53;5109123;28;20193;-44
2023/10/06 07:48:37;;;;;;;8.70;5.85;;;;;;;23.77;55.68;95457.13;5111377;28;20181;-45
2023/10/06 07:51:05;;;;;;;78.25;9.45;;;;;;;23.67;55.02;95445.47;5111790;28;20650;-45
2023/10/06 07:53:35;;;;;;;10.23;5.55;;;;;;;23.47;56.04;95442.81;5109816;28;20196;-43
2023/10/06 07:56:09;;;;;;;11.55;5.70;;;;;;;23.49;55.97;95441.59;5108869;28;20318;-44
2023/10/06 07:58:38;;;;;;;10.07;5.82;;;;;;;23.45;55.87;95448.22;5109219;28;20696;-44
2023/10/06 08:01:07;;;;;;;8.55;5.65;;;;;;;23.48;55.50;95445.19;5112902;28;20205;-45
2023/10/06 08:03:37;;;;;;;9.38;5.72;;;;;;;23.42;55.72;95445.22;5113776;28;20204;-44
2023/10/06 08:06:05;;;;;;;7.82;5.40;;;;;;;23.40;55.59;95448.03;5123775;27;20195;-45
2023/10/06 08:08:33;;;;;;;11.70;5.82;;;;;;;23.36;55.53;95439.00;5123174;28;20196;-45
2023/10/06 08:11:01;;;;;;;7.30;5.63;;;;;;;23.17;55.79;95411.03;5113497;27;20192;-45
2023/10/06 08:13:31;;;;;;;12.95;5.63;;;;;;;23.21;55.59;95431.31;5112895;27;20253;-45
2023/10/06 08:15:58;;;;;;;7.22;5.57;;;;;;;23.21;55.44;95454.81;5113042;28;20204;-45
2023/10/06 08:18:26;;;;;;;10.43;5.82;;;;;;;23.09;56.19;95442.53;5112302;27;20307;-44
2023/10/06 08:20:53;;;;;;;13.10;6.50;;;;;;;23.08;56.39;95451.34;5112914;27;20607;-44
2023/10/06 08:23:20;;;;;;;8.05;5.82;;;;;;;23.02;56.08;95447.75;5111950;28;20196;-44
2023/10/06 08:25:49;;;;;;;12.30;6.65;;;;;;;22.92;56.99;95449.91;5113695;27;20201;-45
2023/10/06 08:28:16;;;;;;;8.23;5.93;;;;;;;22.95;56.69;95450.31;5111756;28;20196;-45
2023/10/06 08:30:45;;;;;;;8.07;5.80;;;;;;;22.97;56.96;95452.72;5114071;27;20181;-44
2023/10/06 08:33:12;;;;;;;10.00;5.60;;;;;;;23.03;57.09;95455.38;5112076;28;20218;-44
2023/10/06 08:35:40;;;;;;;10.15;6.25;;;;;;;22.99;55.96;95448.13;5112572;28;20181;-45
2023/10/06 08:38:07;;;;;;;7.20;5.90;;;;;;;22.93;56.20;95460.16;5112064;28;20215;-44
2023/10/06 08:40:37;;;;;;;13.88;6.18;;;;;;;22.82;56.62;95457.25;5112169;27;20224;-44
2023/10/06 08:43:06;;;;;;;14.30;6.47;;;;;;;22.79;56.84;95450.63;5113087;27;20215;-44
2023/10/06 08:45:40;;;;;;;9.52;6.20;;;;;;;22.83;57.21;95453.66;5114368;27;20199;-44
2023/10/06 08:48:10;;;;;;;10.38;6.35;;;;;;;22.86;56.76;95448.84;5111646;28;20201;-46
2023/10/06 08:50:38;;;;;;;12.13;5.65;;;;;;;22.74;56.39;95453.00;5113964;27;20317;-44
2023/10/06 08:53:09;;;;;;;8.27;6.45;;;;;;;22.51;57.43;95433.25;5111456;27;20254;-44
2023/10/06 08:55:38;;;;;;;14.20;6.90;;;;;;;22.60;57.62;95443.53;5113007;27;20283;-44
2023/10/06 08:58:07;;;;;;;8.35;6.22;;;;;;;22.67;56.69;95445.19;5111428;28;20245;-44
2023/10/06 09:00:36;;;;;;;11.80;6.07;;;;;;;22.62;57.23;95434.50;5111644;28;20638;-46
2023/10/06 09:03:07;;;;;;;15.93;7.18;;;;;;;22.66;57.22;95446.16;5111410;28;20311;-45
2023/10/06 09:05:39;;;;;;;13.60;6.82;;;;;;;22.69;57.54;95440.56;5111583;28;20185;-45
2023/10/06 09:08:07;;;;;;;10.30;6.20;;;;;;;22.78;56.38;95446.41;5110821;28;20192;-44
2023/10/06 09:10:35;;;;;;;14.15;8.95;;;;;;;22.82;55.99;95439.81;5111491;28;20278;-46
2023/10/06 09:13:04;;;;;;;13.88;7.97;;;;;;;22.71;56.50;95425.53;5112069;27;20196;-46
2023/10/06 09:15:31;;;;;;;11.48;7.65;;;;;;;22.84;56.04;95435.22;5111367;28;20275;-45
2023/10/06 09:17:59;;;;;;;8.88;5.85;;;;;;;22.70;56.61;95436.94;5111706;28;20200;-45
2023/10/06 09:20:31;;;;;;;13.57;6.15;;;;;;;22.58;57.13;95429.88;5111530;28;20200;-45
2023/10/06 09:23:00;;;;;;;14.60;5.80;;;;;;;22.62;56.63;95437.09;5111689;27;20201;-54
2023/10/06 09:25:29;;;;;;;12.70;6.50;;;;;;;22.58;56.88;95429.88;5110784;28;20204;-44
2023/10/06 09:28:08;;;;;;;10.95;6.32;;;;;;;22.68;56.28;95436.34;5113571;27;20367;-44
2023/10/06 09:30:50;;;;;;;13.18;6.78;;;;;;;22.56;56.49;95408.41;5111859;27;20200;-43
2023/10/06 09:33:17;;;;;;;18.67;7.35;;;;;;;22.62;56.12;95411.03;5111897;27;20208;-45
2023/10/06 09:35:44;;;;;;;8.50;6.40;;;;;;;22.67;56.24;95418.31;5111429;27;20193;-45
2023/10/06 09:38:15;;;;;;;11.30;6.18;;;;;;;22.83;56.38;95432.78;5112090;27;20676;-44
2023/10/06 09:40:43;;;;;;;9.50;5.80;;;;;;;22.94;56.30;95429.66;5110798;28;20201;-46
2023/10/06 09:43:15;;;;;;;8.63;5.97;;;;;;;23.09;55.13;95438.09;5110163;27;20717;-44
2023/10/06 09:45:43;;;;;;;9.90;6.60;;;;;;;23.10;54.56;95426.69;5112535;27;20181;-44
2023/10/06 09:48:13;;;;;;;9.38;6.10;;;;;;;23.07;55.03;95416.63;5110477;27;20834;-44
2023/10/06 09:50:44;;;;;;;9.95;6.57;;;;;;;23.06;54.93;95396.78;5110153;28;20590;-45
2023/10/06 09:53:13;;;;;;;9.45;6.30;;;;;;;23.29;54.47;95428.53;5110332;28;20644;-44
2023/10/06 09:55:43;;;;;;;8.57;6.38;;;;;;;23.36;54.18;95425.94;5110280;28;20644;-44
2023/10/06 09:58:11;;;;;;;7.90;6.20;;;;;;;23.29;54.41;95428.53;5109894;28;20572;-44
2023/10/06 10:00:40;;;;;;;8.52;5.82;;;;;;;23.34;54.25;95427.94;5110425;28;20717;-45
2023/10/06 10:03:09;;;;;;;9.32;5.60;;;;;;;23.35;53.96;95423.50;5110471;28;20420;-45
2023/10/06 10:05:39;;;;;;;11.90;6.20;;;;;;;23.37;53.89;95430.16;5110275;28;20791;-44
2023/10/06 10:08:06;;;;;;;9.80;6.28;;;;;;;23.31;54.34;95410.03;5110505;28;20274;-43
2023/10/06 10:10:37;;;;;;;9.23;6.53;;;;;;;23.47;53.39;95417.50;5109693;28;20212;-45
2023/10/06 10:14:02;;;;;;;9.57;6.20;;;;;;;23.57;52.76;95409.25;5107658;28;20658;-44
2023/10/06 10:16:44;;;;;;;10.13;6.10;;;;;;;23.58;51.62;95418.72;5087479;28;20194;-45
2023/10/06 10:19:13;;;;;;;10.43;6.22;;;;;;;23.49;52.34;95423.34;5087794;28;20197;-44
2023/10/06 10:21:41;;;;;;;9.40;5.70;;;;;;;23.48;52.02;95416.47;5087393;28;20194;-44
2023/10/06 10:24:13;;;;;;;15.95;6.47;;;;;;;23.44;51.89;95417.88;5086745;28;20193;-46
2023/10/06 10:26:41;;;;;;;10.75;6.03;;;;;;;23.42;51.73;95414.69;5089382;28;20193;-46
2023/10/06 10:29:31;;;;;;;12.05;6.10;;;;;;;23.36;51.45;95405.06;5087615;28;20679;-44
2023/10/06 10:32:01;;;;;;;9.38;5.30;;;;;;;23.30;51.04;95408.44;5087081;28;20210;-46
2023/10/06 10:34:33;;;;;;;13.52;5.97;;;;;;;23.18;51.39;95397.78;5086764;28;20397;-44
2023/10/06 10:37:18;;;;;;;8.40;6.43;;;;;;;23.16;51.77;95396.38;5086987;28;20647;-45
2023/10/06 10:39:49;;;;;;;10.77;6.60;;;;;;;23.16;51.83;95399.00;5086770;28;20189;-46
2023/10/06 10:42:18;;;;;;;6.60;5.30;;;;;;;23.23;51.73;95395.41;5086583;28;20217;-44
2023/10/06 10:44:48;;;;;;;8.00;5.47;;;;;;;23.32;51.33;95382.97;5086729;28;20272;-45
2023/10/06 10:47:15;;;;;;;10.38;6.05;;;;;;;23.43;50.98;95389.38;5096520;28;20705;-46
2023/10/06 10:49:44;;;;;;;11.00;5.85;;;;;;;23.42;49.63;95380.75;5109302;28;20225;-45
2023/10/06 10:52:12;;;;;;;7.72;5.57;;;;;;;23.36;50.16;95381.56;5108996;28;20729;-44
2023/10/06 10:54:40;;;;;;;10.90;5.70;;;;;;;23.37;48.69;95377.13;5109657;28;20246;-45
2023/10/06 10:57:09;;;;;;;9.52;5.32;;;;;;;23.21;49.31;95380.94;5109396;27;20184;-45
2023/10/06 11:00:15;;;;;;;7.13;5.80;;;;;;;23.13;49.76;95375.91;5109873;28;20217;-44
2023/10/06 11:02:45;;;;;;;11.93;6.55;;;;;;;23.25;48.89;95375.09;5046264;28;20223;-45
2023/10/06 11:05:12;;;;;;;7.15;5.13;;;;;;;23.25;48.41;95376.91;5046205;28;20191;-44
2023/10/06 11:07:41;;;;;;;8.52;4.90;;;;;;;23.14;47.97;95367.84;5046372;28;20191;-45
2023/10/06 11:10:13;;;;;;;10.82;5.05;;;;;;;23.13;48.02;95365.47;5046086;28;20190;-45
2023/10/06 11:12:39;;;;;;;5.20;4.70;;;;;;;23.13;48.55;95355.81;5048311;28;20218;-45
2023/10/06 11:15:15;;;;;;;7.40;5.53;;;;;;;23.20;48.71;95359.25;5046429;28;20645;-46
2023/10/06 11:17:43;;;;;;;5.88;4.63;;;;;;;23.33;47.40;95355.03;5044583;28;20228;-44
2023/10/06 11:20:15;;;;;;;6.68;5.15;;;;;;;23.26;47.33;95339.38;5045672;28;20199;-45
2023/10/06 11:23:00;;;;;;;7.35;5.15;;;;;;;23.34;47.46;95354.03;5045234;28;20206;-45
2023/10/06 11:25:29;;;;;;;9.52;4.82;;;;;;;23.43;46.64;95345.78;5044216;28;20205;-45
2023/10/06 11:27:57;;;;;;;7.72;5.32;;;;;;;23.42;46.66;95346.81;5047968;28;20202;-45
2023/10/06 11:30:28;;;;;;;10.60;5.03;;;;;;;23.46;46.35;95348.00;5045305;28;20579;-45
2023/10/06 11:32:56;;;;;;;10.10;5.35;;;;;;;23.49;46.29;95341.59;5046021;28;20241;-44
2023/10/06 11:35:24;;;;;;;7.10;4.78;;;;;;;23.58;45.21;95344.81;5045346;28;20183;-44
2023/10/06 11:37:51;;;;;;;9.40;4.50;;;;;;;23.64;45.33;95341.38;5045958;28;20287;-46
2023/10/06 11:40:21;;;;;;;8.40;4.85;;;;;;;23.67;45.09;95346.22;5100425;28;20272;-47
2023/10/06 11:42:48;;;;;;;9.85;5.25;;;;;;;23.69;45.08;95349.41;5108750;28;20213;-45